sensor_id;sensor_type;location;lat;lon;timestamp;P1;durP1;ratioP1;P2;durP2;ratioP2
77736;SDS011;66903;59.926;30.404;2023-06-10T00:01:31;2.90;;;0.50;;
77736;SDS011;66903;59.926;30.404;2023-06-10T00:06:34;0.30;;;0.30;;
77736;SDS011;66903;59.926;30.404;2023-06-10T00:11:37;2.17;;;0.60;;
77736;SDS011;66903;59.926;30.404;2023-06-10T00:16:38;0.70;;;0.40;;
77736;SDS011;66903;59.926;30.404;2023-06-10T00:21:39;1.35;;;0.50;;
77736;SDS011;66903;59.926;30.404;2023-06-10T00:26:40;0.95;;;0.47;;
77736;SDS011;66903;59.926;30.404;2023-06-10T00:31:41;0.45;;;0.30;;
77736;SDS011;66903;59.926;30.404;2023-06-10T00:36:42;1.98;;;1.27;;
77736;SDS011;66903;59.926;30.404;2023-06-10T00:41:43;1.52;;;0.57;;
77736;SDS011;66903;59.926;30.404;2023-06-10T00:46:43;1.50;;;0.60;;
77736;SDS011;66903;59.926;30.404;2023-06-10T00:51:44;1.15;;;0.40;;
77736;SDS011;66903;59.926;30.404;2023-06-10T00:56:45;2.03;;;0.50;;
77736;SDS011;66903;59.926;30.404;2023-06-10T01:01:47;1.00;;;0.35;;
77736;SDS011;66903;59.926;30.404;2023-06-10T01:11:55;1.73;;;0.50;;
77736;SDS011;66903;59.926;30.404;2023-06-10T01:17:00;2.00;;;0.43;;
77736;SDS011;66903;59.926;30.404;2023-06-10T01:22:01;1.98;;;0.40;;
77736;SDS011;66903;59.926;30.404;2023-06-10T01:27:03;0.75;;;0.40;;
77736;SDS011;66903;59.926;30.404;2023-06-10T01:32:12;1.17;;;0.50;;
77736;SDS011;66903;59.926;30.404;2023-06-10T01:37:19;1.30;;;0.50;;
77736;SDS011;66903;59.926;30.404;2023-06-10T01:42:22;0.98;;;0.40;;
77736;SDS011;66903;59.926;30.404;2023-06-10T01:47:23;1.15;;;0.50;;
77736;SDS011;66903;59.926;30.404;2023-06-10T01:52:24;1.58;;;0.50;;
77736;SDS011;66903;59.926;30.404;2023-06-10T01:57:25;1.08;;;0.40;;
77736;SDS011;66903;59.926;30.404;2023-06-10T02:02:25;1.33;;;0.40;;
77736;SDS011;66903;59.926;30.404;2023-06-10T02:07:26;1.58;;;0.50;;
77736;SDS011;66903;59.926;30.404;2023-06-10T02:12:26;0.82;;;0.40;;
77736;SDS011;66903;59.926;30.404;2023-06-10T02:17:27;1.50;;;0.60;;
77736;SDS011;66903;59.926;30.404;2023-06-10T02:22:28;0.93;;;0.45;;
77736;SDS011;66903;59.926;30.404;2023-06-10T02:27:29;1.42;;;0.60;;
77736;SDS011;66903;59.926;30.404;2023-06-10T02:32:33;1.30;;;0.45;;
77736;SDS011;66903;59.926;30.404;2023-06-10T02:37:33;0.80;;;0.35;;
77736;SDS011;66903;59.926;30.404;2023-06-10T02:42:34;1.52;;;0.60;;
77736;SDS011;66903;59.926;30.404;2023-06-10T02:47:34;1.10;;;0.50;;
77736;SDS011;66903;59.926;30.404;2023-06-10T02:52:37;0.90;;;0.40;;
77736;SDS011;66903;59.926;30.404;2023-06-10T02:57:38;0.65;;;0.32;;
77736;SDS011;66903;59.926;30.404;2023-06-10T03:02:38;0.82;;;0.40;;
77736;SDS011;66903;59.926;30.404;2023-06-10T03:07:39;0.90;;;0.35;;
77736;SDS011;66903;59.926;30.404;2023-06-10T03:12:39;1.42;;;0.60;;
77736;SDS011;66903;59.926;30.404;2023-06-10T03:17:40;0.63;;;0.40;;
77736;SDS011;66903;59.926;30.404;2023-06-10T03:22:40;0.63;;;0.30;;
77736;SDS011;66903;59.926;30.404;2023-06-10T03:27:42;0.80;;;0.45;;
77736;SDS011;66903;59.926;30.404;2023-06-10T03:32:42;1.25;;;0.50;;
77736;SDS011;66903;59.926;30.404;2023-06-10T03:37:43;1.08;;;0.40;;
77736;SDS011;66903;59.926;30.404;2023-06-10T03:42:44;1.80;;;0.60;;
77736;SDS011;66903;59.926;30.404;2023-06-10T03:47:44;0.77;;;0.40;;
77736;SDS011;66903;59.926;30.404;2023-06-10T03:52:45;0.85;;;0.30;;
77736;SDS011;66903;59.926;30.404;2023-06-10T03:57:47;5.63;;;0.60;;
77736;SDS011;66903;59.926;30.404;2023-06-10T04:02:48;1.25;;;0.50;;
77736;SDS011;66903;59.926;30.404;2023-06-10T04:07:51;0.43;;;0.32;;
77736;SDS011;66903;59.926;30.404;2023-06-10T04:12:52;1.42;;;0.50;;
77736;SDS011;66903;59.926;30.404;2023-06-10T04:17:52;0.50;;;0.30;;
77736;SDS011;66903;59.926;30.404;2023-06-10T04:22:53;0.88;;;0.40;;
77736;SDS011;66903;59.926;30.404;2023-06-10T04:27:53;0.98;;;0.38;;
77736;SDS011;66903;59.926;30.404;2023-06-10T04:32:55;1.23;;;0.55;;
77736;SDS011;66903;59.926;30.404;2023-06-10T04:37:55;0.60;;;0.28;;
77736;SDS011;66903;59.926;30.404;2023-06-10T04:42:56;1.15;;;0.47;;
77736;SDS011;66903;59.926;30.404;2023-06-10T04:47:57;1.17;;;0.40;;
77736;SDS011;66903;59.926;30.404;2023-06-10T04:52:58;0.88;;;0.40;;
77736;SDS011;66903;59.926;30.404;2023-06-10T04:57:59;0.98;;;0.40;;
77736;SDS011;66903;59.926;30.404;2023-06-10T05:02:59;1.00;;;0.30;;
77736;SDS011;66903;59.926;30.404;2023-06-10T05:08:00;0.98;;;0.47;;
77736;SDS011;66903;59.926;30.404;2023-06-10T05:13:00;1.13;;;0.40;;
77736;SDS011;66903;59.926;30.404;2023-06-10T05:18:01;1.77;;;0.40;;
77736;SDS011;66903;59.926;30.404;2023-06-10T05:23:04;1.48;;;0.47;;
77736;SDS011;66903;59.926;30.404;2023-06-10T05:28:05;0.47;;;0.25;;
77736;SDS011;66903;59.926;30.404;2023-06-10T05:33:09;0.68;;;0.30;;
77736;SDS011;66903;59.926;30.404;2023-06-10T05:38:10;0.73;;;0.30;;
77736;SDS011;66903;59.926;30.404;2023-06-10T05:43:10;0.43;;;0.22;;
77736;SDS011;66903;59.926;30.404;2023-06-10T05:48:11;1.15;;;0.50;;
77736;SDS011;66903;59.926;30.404;2023-06-10T05:53:11;0.80;;;0.30;;
77736;SDS011;66903;59.926;30.404;2023-06-10T05:58:15;1.95;;;0.40;;
77736;SDS011;66903;59.926;30.404;2023-06-10T06:03:15;0.68;;;0.40;;
77736;SDS011;66903;59.926;30.404;2023-06-10T06:08:17;0.75;;;0.38;;
77736;SDS011;66903;59.926;30.404;2023-06-10T06:13:18;0.90;;;0.30;;
77736;SDS011;66903;59.926;30.404;2023-06-10T06:18:19;3.05;;;0.65;;
77736;SDS011;66903;59.926;30.404;2023-06-10T06:23:19;0.30;;;0.20;;
77736;SDS011;66903;59.926;30.404;2023-06-10T06:28:20;0.57;;;0.32;;
77736;SDS011;66903;59.926;30.404;2023-06-10T06:33:22;1.67;;;0.40;;
77736;SDS011;66903;59.926;30.404;2023-06-10T06:38:22;0.73;;;0.30;;
77736;SDS011;66903;59.926;30.404;2023-06-10T06:43:23;0.57;;;0.30;;
77736;SDS011;66903;59.926;30.404;2023-06-10T06:48:24;0.95;;;0.43;;
77736;SDS011;66903;59.926;30.404;2023-06-10T06:53:24;0.32;;;0.20;;
77736;SDS011;66903;59.926;30.404;2023-06-10T06:58:25;0.63;;;0.30;;
77736;SDS011;66903;59.926;30.404;2023-06-10T07:03:26;0.55;;;0.35;;
77736;SDS011;66903;59.926;30.404;2023-06-10T07:08:26;1.17;;;0.43;;
77736;SDS011;66903;59.926;30.404;2023-06-10T07:13:27;3.70;;;0.60;;
77736;SDS011;66903;59.926;30.404;2023-06-10T07:18:27;3.00;;;0.70;;
77736;SDS011;66903;59.926;30.404;2023-06-10T07:23:28;7.20;;;1.25;;
77736;SDS011;66903;59.926;30.404;2023-06-10T07:28:28;12.20;;;2.40;;
77736;SDS011;66903;59.926;30.404;2023-06-10T07:33:29;9.32;;;2.17;;
77736;SDS011;66903;59.926;30.404;2023-06-10T07:38:29;11.00;;;2.30;;
77736;SDS011;66903;59.926;30.404;2023-06-10T07:43:30;7.78;;;2.05;;
77736;SDS011;66903;59.926;30.404;2023-06-10T07:48:31;9.45;;;2.08;;
77736;SDS011;66903;59.926;30.404;2023-06-10T07:53:31;9.27;;;2.55;;
77736;SDS011;66903;59.926;30.404;2023-06-10T07:58:32;7.45;;;1.77;;
77736;SDS011;66903;59.926;30.404;2023-06-10T08:03:32;6.03;;;1.60;;
77736;SDS011;66903;59.926;30.404;2023-06-10T08:08:33;5.47;;;2.00;;
77736;SDS011;66903;59.926;30.404;2023-06-10T08:13:34;4.10;;;1.20;;
77736;SDS011;66903;59.926;30.404;2023-06-10T08:18:35;4.60;;;1.30;;
77736;SDS011;66903;59.926;30.404;2023-06-10T08:23:35;3.88;;;1.00;;
77736;SDS011;66903;59.926;30.404;2023-06-10T08:28:36;3.67;;;1.00;;
77736;SDS011;66903;59.926;30.404;2023-06-10T08:33:36;4.97;;;0.90;;
77736;SDS011;66903;59.926;30.404;2023-06-10T08:38:37;3.75;;;0.82;;
77736;SDS011;66903;59.926;30.404;2023-06-10T08:43:44;3.17;;;0.90;;
77736;SDS011;66903;59.926;30.404;2023-06-10T08:48:48;4.78;;;1.08;;
77736;SDS011;66903;59.926;30.404;2023-06-10T08:53:58;6.30;;;1.10;;
77736;SDS011;66903;59.926;30.404;2023-06-10T08:59:02;3.15;;;0.57;;
77736;SDS011;66903;59.926;30.404;2023-06-10T09:04:03;2.38;;;0.60;;
77736;SDS011;66903;59.926;30.404;2023-06-10T09:09:05;2.38;;;0.82;;
77736;SDS011;66903;59.926;30.404;2023-06-10T09:14:07;1.35;;;0.60;;
77736;SDS011;66903;59.926;30.404;2023-06-10T09:19:07;2.85;;;0.57;;
77736;SDS011;66903;59.926;30.404;2023-06-10T09:24:08;4.90;;;0.60;;
77736;SDS011;66903;59.926;30.404;2023-06-10T09:29:09;1.85;;;0.60;;
77736;SDS011;66903;59.926;30.404;2023-06-10T09:34:12;1.52;;;0.57;;
77736;SDS011;66903;59.926;30.404;2023-06-10T09:39:15;2.67;;;0.50;;
77736;SDS011;66903;59.926;30.404;2023-06-10T09:44:18;1.67;;;0.63;;
77736;SDS011;66903;59.926;30.404;2023-06-10T09:49:20;1.80;;;0.43;;
77736;SDS011;66903;59.926;30.404;2023-06-10T09:54:21;0.90;;;0.47;;
77736;SDS011;66903;59.926;30.404;2023-06-10T09:59:28;1.65;;;0.52;;
77736;SDS011;66903;59.926;30.404;2023-06-10T10:04:32;1.38;;;0.45;;
77736;SDS011;66903;59.926;30.404;2023-06-10T10:09:35;1.48;;;0.50;;
77736;SDS011;66903;59.926;30.404;2023-06-10T10:14:40;0.93;;;0.40;;
77736;SDS011;66903;59.926;30.404;2023-06-10T10:19:46;1.23;;;0.40;;
77736;SDS011;66903;59.926;30.404;2023-06-10T10:24:52;0.65;;;0.20;;
77736;SDS011;66903;59.926;30.404;2023-06-10T10:29:57;0.95;;;0.40;;
77736;SDS011;66903;59.926;30.404;2023-06-10T10:40:06;0.98;;;0.43;;
77736;SDS011;66903;59.926;30.404;2023-06-10T10:45:08;1.05;;;0.35;;
77736;SDS011;66903;59.926;30.404;2023-06-10T10:50:16;0.77;;;0.38;;
77736;SDS011;66903;59.926;30.404;2023-06-10T10:55:18;1.15;;;0.38;;
77736;SDS011;66903;59.926;30.404;2023-06-10T11:00:24;1.55;;;0.45;;
77736;SDS011;66903;59.926;30.404;2023-06-10T11:05:42;0.93;;;0.30;;
77736;SDS011;66903;59.926;30.404;2023-06-10T11:10:51;0.82;;;0.30;;
77736;SDS011;66903;59.926;30.404;2023-06-10T11:15:57;2.05;;;0.40;;
77736;SDS011;66903;59.926;30.404;2023-06-10T11:20:59;0.85;;;0.30;;
77736;SDS011;66903;59.926;30.404;2023-06-10T11:36:25;0.90;;;0.30;;
77736;SDS011;66903;59.926;30.404;2023-06-10T11:41:28;5.82;;;0.30;;
77736;SDS011;66903;59.926;30.404;2023-06-10T11:46:29;2.00;;;0.40;;
77736;SDS011;66903;59.926;30.404;2023-06-10T11:51:31;0.90;;;0.40;;
77736;SDS011;66903;59.926;30.404;2023-06-10T11:56:34;0.68;;;0.32;;
77736;SDS011;66903;59.926;30.404;2023-06-10T12:01:35;0.88;;;0.40;;
77736;SDS011;66903;59.926;30.404;2023-06-10T12:06:46;0.40;;;0.20;;
77736;SDS011;66903;59.926;30.404;2023-06-10T12:12:00;0.82;;;0.40;;
77736;SDS011;66903;59.926;30.404;2023-06-10T12:17:02;1.00;;;0.43;;
77736;SDS011;66903;59.926;30.404;2023-06-10T12:22:03;0.68;;;0.30;;
77736;SDS011;66903;59.926;30.404;2023-06-10T12:27:04;0.77;;;0.30;;
77736;SDS011;66903;59.926;30.404;2023-06-10T12:32:05;2.33;;;0.60;;
77736;SDS011;66903;59.926;30.404;2023-06-10T12:37:10;0.82;;;0.30;;
77736;SDS011;66903;59.926;30.404;2023-06-10T12:42:15;0.98;;;0.43;;
77736;SDS011;66903;59.926;30.404;2023-06-10T12:47:16;0.55;;;0.40;;
77736;SDS011;66903;59.926;30.404;2023-06-10T12:52:17;1.02;;;0.40;;
77736;SDS011;66903;59.926;30.404;2023-06-10T12:57:17;2.65;;;0.32;;
77736;SDS011;66903;59.926;30.404;2023-06-10T13:02:18;5.00;;;0.40;;
77736;SDS011;66903;59.926;30.404;2023-06-10T13:07:23;1.20;;;0.32;;
77736;SDS011;66903;59.926;30.404;2023-06-10T13:12:25;2.30;;;0.28;;
77736;SDS011;66903;59.926;30.404;2023-06-10T13:17:28;1.33;;;0.38;;
77736;SDS011;66903;59.926;30.404;2023-06-10T13:22:29;1.30;;;0.50;;
77736;SDS011;66903;59.926;30.404;2023-06-10T13:27:30;2.03;;;0.73;;
77736;SDS011;66903;59.926;30.404;2023-06-10T13:32:31;1.63;;;0.47;;
77736;SDS011;66903;59.926;30.404;2023-06-10T13:37:31;0.98;;;0.50;;
77736;SDS011;66903;59.926;30.404;2023-06-10T13:42:33;3.22;;;0.35;;
77736;SDS011;66903;59.926;30.404;2023-06-10T13:47:35;1.25;;;0.50;;
77736;SDS011;66903;59.926;30.404;2023-06-10T13:52:36;3.28;;;0.47;;
77736;SDS011;66903;59.926;30.404;2023-06-10T13:57:37;0.77;;;0.45;;
77736;SDS011;66903;59.926;30.404;2023-06-10T14:02:37;1.60;;;0.60;;
77736;SDS011;66903;59.926;30.404;2023-06-10T14:07:38;2.72;;;0.50;;
77736;SDS011;66903;59.926;30.404;2023-06-10T14:12:40;1.08;;;0.40;;
77736;SDS011;66903;59.926;30.404;2023-06-10T14:17:42;1.88;;;0.52;;
77736;SDS011;66903;59.926;30.404;2023-06-10T14:22:42;1.25;;;0.50;;
77736;SDS011;66903;59.926;30.404;2023-06-10T14:27:43;1.67;;;0.40;;
77736;SDS011;66903;59.926;30.404;2023-06-10T14:32:43;4.68;;;0.60;;
77736;SDS011;66903;59.926;30.404;2023-06-10T14:37:44;4.63;;;0.75;;
77736;SDS011;66903;59.926;30.404;2023-06-10T14:42:45;7.70;;;0.60;;
77736;SDS011;66903;59.926;30.404;2023-06-10T14:47:45;2.03;;;0.60;;
77736;SDS011;66903;59.926;30.404;2023-06-10T14:52:47;2.47;;;0.60;;
77736;SDS011;66903;59.926;30.404;2023-06-10T14:57:47;1.20;;;0.50;;
77736;SDS011;66903;59.926;30.404;2023-06-10T15:02:48;1.55;;;0.60;;
77736;SDS011;66903;59.926;30.404;2023-06-10T15:07:48;1.25;;;0.50;;
77736;SDS011;66903;59.926;30.404;2023-06-10T15:12:49;1.60;;;0.50;;
77736;SDS011;66903;59.926;30.404;2023-06-10T15:17:55;1.83;;;0.60;;
77736;SDS011;66903;59.926;30.404;2023-06-10T15:22:56;1.65;;;0.38;;
77736;SDS011;66903;59.926;30.404;2023-06-10T15:27:56;1.52;;;0.60;;
77736;SDS011;66903;59.926;30.404;2023-06-10T15:32:57;5.18;;;0.55;;
77736;SDS011;66903;59.926;30.404;2023-06-10T15:37:59;0.85;;;0.40;;
77736;SDS011;66903;59.926;30.404;2023-06-10T15:42:59;1.60;;;0.60;;
77736;SDS011;66903;59.926;30.404;2023-06-10T15:48:00;0.77;;;0.40;;
77736;SDS011;66903;59.926;30.404;2023-06-10T15:53:00;2.20;;;0.68;;
77736;SDS011;66903;59.926;30.404;2023-06-10T15:58:01;1.05;;;0.40;;
77736;SDS011;66903;59.926;30.404;2023-06-10T16:03:03;1.30;;;0.40;;
77736;SDS011;66903;59.926;30.404;2023-06-10T16:08:04;0.90;;;0.40;;
77736;SDS011;66903;59.926;30.404;2023-06-10T16:13:05;1.33;;;0.38;;
77736;SDS011;66903;59.926;30.404;2023-06-10T16:18:05;1.30;;;0.50;;
77736;SDS011;66903;59.926;30.404;2023-06-10T16:23:06;0.82;;;0.40;;
77736;SDS011;66903;59.926;30.404;2023-06-10T16:28:07;2.28;;;0.45;;
77736;SDS011;66903;59.926;30.404;2023-06-10T16:33:08;1.55;;;0.60;;
77736;SDS011;66903;59.926;30.404;2023-06-10T16:38:09;1.42;;;0.40;;
77736;SDS011;66903;59.926;30.404;2023-06-10T16:43:09;1.63;;;0.52;;
77736;SDS011;66903;59.926;30.404;2023-06-10T16:48:10;1.73;;;0.63;;
77736;SDS011;66903;59.926;30.404;2023-06-10T16:53:10;1.15;;;0.43;;
77736;SDS011;66903;59.926;30.404;2023-06-10T16:58:11;1.20;;;0.43;;
77736;SDS011;66903;59.926;30.404;2023-06-10T17:03:12;0.80;;;0.50;;
77736;SDS011;66903;59.926;30.404;2023-06-10T17:08:13;1.27;;;0.50;;
77736;SDS011;66903;59.926;30.404;2023-06-10T17:13:13;1.65;;;0.50;;
77736;SDS011;66903;59.926;30.404;2023-06-10T17:18:14;1.75;;;0.65;;
77736;SDS011;66903;59.926;30.404;2023-06-10T17:23:14;1.17;;;0.50;;
77736;SDS011;66903;59.926;30.404;2023-06-10T17:28:15;1.20;;;0.55;;
77736;SDS011;66903;59.926;30.404;2023-06-10T17:33:16;2.28;;;0.40;;
77736;SDS011;66903;59.926;30.404;2023-06-10T17:38:16;1.45;;;0.40;;
77736;SDS011;66903;59.926;30.404;2023-06-10T17:43:19;1.48;;;0.50;;
77736;SDS011;66903;59.926;30.404;2023-06-10T17:48:23;1.85;;;0.50;;
77736;SDS011;66903;59.926;30.404;2023-06-10T17:53:24;1.15;;;0.60;;
77736;SDS011;66903;59.926;30.404;2023-06-10T17:58:24;1.13;;;0.50;;
77736;SDS011;66903;59.926;30.404;2023-06-10T18:03:25;0.65;;;0.35;;
77736;SDS011;66903;59.926;30.404;2023-06-10T18:08:28;1.85;;;0.50;;
77736;SDS011;66903;59.926;30.404;2023-06-10T18:13:30;0.63;;;0.35;;
77736;SDS011;66903;59.926;30.404;2023-06-10T18:18:31;0.93;;;0.30;;
77736;SDS011;66903;59.926;30.404;2023-06-10T18:23:32;0.90;;;0.43;;
77736;SDS011;66903;59.926;30.404;2023-06-10T18:28:33;1.25;;;0.57;;
77736;SDS011;66903;59.926;30.404;2023-06-10T18:33:36;1.67;;;0.55;;
77736;SDS011;66903;59.926;30.404;2023-06-10T18:38:37;6.32;;;0.55;;
77736;SDS011;66903;59.926;30.404;2023-06-10T18:43:37;1.65;;;0.50;;
77736;SDS011;66903;59.926;30.404;2023-06-10T18:48:38;2.55;;;0.60;;
77736;SDS011;66903;59.926;30.404;2023-06-10T18:53:41;2.08;;;0.75;;
77736;SDS011;66903;59.926;30.404;2023-06-10T18:58:41;2.70;;;0.63;;
77736;SDS011;66903;59.926;30.404;2023-06-10T19:03:43;2.13;;;0.60;;
77736;SDS011;66903;59.926;30.404;2023-06-10T19:08:44;1.85;;;0.70;;
77736;SDS011;66903;59.926;30.404;2023-06-10T19:13:45;4.00;;;0.98;;
77736;SDS011;66903;59.926;30.404;2023-06-10T19:18:45;2.97;;;0.70;;
77736;SDS011;66903;59.926;30.404;2023-06-10T19:23:45;1.42;;;0.50;;
77736;SDS011;66903;59.926;30.404;2023-06-10T19:28:46;1.83;;;0.57;;
77736;SDS011;66903;59.926;30.404;2023-06-10T19:33:46;1.85;;;0.60;;
77736;SDS011;66903;59.926;30.404;2023-06-10T19:38:47;1.92;;;0.65;;
77736;SDS011;66903;59.926;30.404;2023-06-10T19:43:47;0.93;;;0.45;;
77736;SDS011;66903;59.926;30.404;2023-06-10T19:48:48;3.78;;;0.70;;
77736;SDS011;66903;59.926;30.404;2023-06-10T19:53:49;2.00;;;0.65;;
77736;SDS011;66903;59.926;30.404;2023-06-10T19:58:50;4.65;;;0.75;;
77736;SDS011;66903;59.926;30.404;2023-06-10T20:03:51;5.30;;;0.80;;
77736;SDS011;66903;59.926;30.404;2023-06-10T20:08:51;2.53;;;0.60;;
77736;SDS011;66903;59.926;30.404;2023-06-10T20:13:52;4.28;;;0.73;;
77736;SDS011;66903;59.926;30.404;2023-06-10T20:18:52;1.40;;;0.70;;
77736;SDS011;66903;59.926;30.404;2023-06-10T20:23:53;2.47;;;0.60;;
77736;SDS011;66903;59.926;30.404;2023-06-10T20:28:53;2.90;;;0.70;;
77736;SDS011;66903;59.926;30.404;2023-06-10T20:33:54;2.35;;;0.73;;
77736;SDS011;66903;59.926;30.404;2023-06-10T20:38:55;1.00;;;0.50;;
77736;SDS011;66903;59.926;30.404;2023-06-10T20:43:55;2.83;;;0.65;;
77736;SDS011;66903;59.926;30.404;2023-06-10T20:48:57;2.20;;;0.70;;
77736;SDS011;66903;59.926;30.404;2023-06-10T20:53:59;2.25;;;1.15;;
77736;SDS011;66903;59.926;30.404;2023-06-10T20:59:00;6.47;;;0.80;;
77736;SDS011;66903;59.926;30.404;2023-06-10T21:04:00;2.03;;;0.65;;
77736;SDS011;66903;59.926;30.404;2023-06-10T21:09:01;2.35;;;0.73;;
77736;SDS011;66903;59.926;30.404;2023-06-10T21:14:01;2.08;;;0.73;;
77736;SDS011;66903;59.926;30.404;2023-06-10T21:19:02;3.00;;;0.63;;
77736;SDS011;66903;59.926;30.404;2023-06-10T21:24:03;1.88;;;0.70;;
77736;SDS011;66903;59.926;30.404;2023-06-10T21:29:04;2.40;;;0.88;;
77736;SDS011;66903;59.926;30.404;2023-06-10T21:34:05;2.55;;;0.80;;
77736;SDS011;66903;59.926;30.404;2023-06-10T21:39:05;3.85;;;1.20;;
77736;SDS011;66903;59.926;30.404;2023-06-10T21:44:06;3.35;;;0.95;;
77736;SDS011;66903;59.926;30.404;2023-06-10T21:49:06;8.00;;;0.82;;
77736;SDS011;66903;59.926;30.404;2023-06-10T21:54:07;3.15;;;1.00;;
77736;SDS011;66903;59.926;30.404;2023-06-10T21:59:08;3.25;;;0.90;;
77736;SDS011;66903;59.926;30.404;2023-06-10T22:04:09;2.90;;;1.00;;
77736;SDS011;66903;59.926;30.404;2023-06-10T22:09:09;3.05;;;0.95;;
77736;SDS011;66903;59.926;30.404;2023-06-10T22:14:10;4.45;;;1.30;;
77736;SDS011;66903;59.926;30.404;2023-06-10T22:19:10;3.72;;;1.13;;
77736;SDS011;66903;59.926;30.404;2023-06-10T22:24:11;4.25;;;1.15;;
77736;SDS011;66903;59.926;30.404;2023-06-10T22:29:11;4.10;;;1.25;;
77736;SDS011;66903;59.926;30.404;2023-06-10T22:34:12;4.25;;;1.15;;
77736;SDS011;66903;59.926;30.404;2023-06-10T22:39:13;3.58;;;1.10;;
77736;SDS011;66903;59.926;30.404;2023-06-10T22:44:13;4.53;;;1.20;;
77736;SDS011;66903;59.926;30.404;2023-06-10T22:49:14;3.47;;;1.50;;
77736;SDS011;66903;59.926;30.404;2023-06-10T22:54:15;5.28;;;0.98;;
77736;SDS011;66903;59.926;30.404;2023-06-10T22:59:15;4.72;;;1.20;;
77736;SDS011;66903;59.926;30.404;2023-06-10T23:04:16;3.33;;;1.05;;
77736;SDS011;66903;59.926;30.404;2023-06-10T23:09:16;4.22;;;1.23;;
77736;SDS011;66903;59.926;30.404;2023-06-10T23:14:17;3.95;;;1.20;;
77736;SDS011;66903;59.926;30.404;2023-06-10T23:19:17;3.25;;;0.98;;
77736;SDS011;66903;59.926;30.404;2023-06-10T23:24:19;3.13;;;1.13;;
77736;SDS011;66903;59.926;30.404;2023-06-10T23:29:26;3.72;;;1.00;;
77736;SDS011;66903;59.926;30.404;2023-06-10T23:34:27;4.97;;;1.00;;
77736;SDS011;66903;59.926;30.404;2023-06-10T23:39:28;2.58;;;0.98;;
77736;SDS011;66903;59.926;30.404;2023-06-10T23:44:28;3.70;;;1.25;;
77736;SDS011;66903;59.926;30.404;2023-06-10T23:49:30;4.68;;;1.20;;
77736;SDS011;66903;59.926;30.404;2023-06-10T23:54:30;2.53;;;0.90;;
77736;SDS011;66903;59.926;30.404;2023-06-10T23:59:31;3.65;;;0.90;;
